sensor_id;sensor_type;location;lat;lon;timestamp;temperature;humidity
55151;DHT22;41041;43.162;20.538;2024-01-06T08:40:13;179.20;2252.80
55151;DHT22;41041;43.162;20.538;2024-01-06T08:42:39;179.30;2252.80
55151;DHT22;41041;43.162;20.538;2024-01-06T08:45:45;179.50;2252.80
55151;DHT22;41041;43.162;20.538;2024-01-06T08:48:11;179.60;2252.80
55151;DHT22;41041;43.162;20.538;2024-01-06T08:50:38;179.50;2252.80
55151;DHT22;41041;43.162;20.538;2024-01-06T08:53:04;179.50;2252.80
55151;DHT22;41041;43.162;20.538;2024-01-06T08:55:34;179.50;2252.80
55151;DHT22;41041;43.162;20.538;2024-01-06T08:58:00;179.50;2252.80
55151;DHT22;41041;43.162;20.538;2024-01-06T09:00:26;179.50;2252.80
55151;DHT22;41041;43.162;20.538;2024-01-06T09:02:52;179.50;2252.80
55151;DHT22;41041;43.162;20.538;2024-01-06T09:05:18;179.60;2252.80
55151;DHT22;41041;43.162;20.538;2024-01-06T09:07:44;179.60;2252.80
55151;DHT22;41041;43.162;20.538;2024-01-06T09:10:14;179.60;2252.80
55151;DHT22;41041;43.162;20.538;2024-01-06T09:12:40;179.70;2252.80
55151;DHT22;41041;43.162;20.538;2024-01-06T09:18:32;179.70;2252.80
55151;DHT22;41041;43.162;20.538;2024-01-06T09:20:58;179.70;2252.80
55151;DHT22;41041;43.162;20.538;2024-01-06T09:25:53;180.00;2252.80
55151;DHT22;41041;43.162;20.538;2024-01-06T09:32:08;204.80;2252.80
55151;DHT22;41041;43.162;20.538;2024-01-06T09:52:26;205.20;2252.80
55151;DHT22;41041;43.162;20.538;2024-01-06T09:58:14;205.30;2252.80
55151;DHT22;41041;43.162;20.538;2024-01-06T10:00:40;205.40;2252.80
55151;DHT22;41041;43.162;20.538;2024-01-06T10:03:06;205.40;2252.80
55151;DHT22;41041;43.162;20.538;2024-01-06T10:05:38;205.60;2252.80
55151;DHT22;41041;43.162;20.538;2024-01-06T10:08:04;205.70;2252.80
55151;DHT22;41041;43.162;20.538;2024-01-06T10:10:31;230.40;2252.80
55151;DHT22;41041;43.162;20.538;2024-01-06T10:12:58;205.70;2252.80
55151;DHT22;41041;43.162;20.538;2024-01-06T10:15:24;230.40;2252.80
55151;DHT22;41041;43.162;20.538;2024-01-06T10:17:50;230.50;2252.80
55151;DHT22;41041;43.162;20.538;2024-01-06T10:20:16;230.50;2252.80
55151;DHT22;41041;43.162;20.538;2024-01-06T10:22:43;230.60;2252.80
55151;DHT22;41041;43.162;20.538;2024-01-06T10:25:10;230.70;2252.80
55151;DHT22;41041;43.162;20.538;2024-01-06T10:31:09;230.80;2252.80
55151;DHT22;41041;43.162;20.538;2024-01-06T10:33:35;230.90;2252.80
55151;DHT22;41041;43.162;20.538;2024-01-06T10:38:40;231.10;2252.80
55151;DHT22;41041;43.162;20.538;2024-01-06T10:55:28;256.10;2252.80
55151;DHT22;41041;43.162;20.538;2024-01-06T11:27:42;256.90;2252.80
55151;DHT22;41041;43.162;20.538;2024-01-06T11:30:20;281.60;2099.20
55151;DHT22;41041;43.162;20.538;2024-01-06T11:36:09;281.80;2278.40
55151;DHT22;41041;43.162;20.538;2024-01-06T11:38:39;281.80;2278.40
55151;DHT22;41041;43.162;20.538;2024-01-06T11:41:08;281.90;2278.40
55151;DHT22;41041;43.162;20.538;2024-01-06T11:43:35;281.90;2278.40
55151;DHT22;41041;43.162;20.538;2024-01-06T11:46:05;282.00;2278.40
55151;DHT22;41041;43.162;20.538;2024-01-06T11:48:32;282.00;2278.40
55151;DHT22;41041;43.162;20.538;2024-01-06T11:50:59;282.10;2278.40
55151;DHT22;41041;43.162;20.538;2024-01-06T11:53:27;307.20;2304.00
55151;DHT22;41041;43.162;20.538;2024-01-06T11:55:55;282.40;2278.40
55151;DHT22;41041;43.162;20.538;2024-01-06T11:58:21;307.30;2304.00
55151;DHT22;41041;43.162;20.538;2024-01-06T12:00:56;307.30;2304.00
55151;DHT22;41041;43.162;20.538;2024-01-06T12:03:22;307.50;2304.00
55151;DHT22;41041;43.162;20.538;2024-01-06T12:06:02;307.60;2304.00
55151;DHT22;41041;43.162;20.538;2024-01-06T12:08:28;307.50;2304.00
55151;DHT22;41041;43.162;20.538;2024-01-06T12:11:04;307.70;2304.00
55151;DHT22;41041;43.162;20.538;2024-01-06T12:13:31;307.70;2304.00
55151;DHT22;41041;43.162;20.538;2024-01-06T12:22:45;308.00;2304.00
55151;DHT22;41041;43.162;20.538;2024-01-06T12:27:44;332.80;2329.60
55151;DHT22;41041;43.162;20.538;2024-01-06T12:33:39;308.00;2304.00
55151;DHT22;41041;43.162;20.538;2024-01-06T12:39:48;308.10;2304.00
55151;DHT22;41041;43.162;20.538;2024-01-06T12:45:37;333.00;2329.60
55151;DHT22;41041;43.162;20.538;2024-01-06T12:48:03;332.90;2329.60
55151;DHT22;41041;43.162;20.538;2024-01-06T12:50:29;333.10;2329.60
55151;DHT22;41041;43.162;20.538;2024-01-06T12:56:17;332.80;2329.60
55151;DHT22;41041;43.162;20.538;2024-01-06T12:58:43;332.80;2329.60
55151;DHT22;41041;43.162;20.538;2024-01-06T13:01:11;308.00;2304.00
55151;DHT22;41041;43.162;20.538;2024-01-06T13:03:39;307.90;2304.00
55151;DHT22;41041;43.162;20.538;2024-01-06T13:41:35;307.50;2304.00
55151;DHT22;41041;43.162;20.538;2024-01-06T13:50:59;307.30;2304.00
55151;DHT22;41041;43.162;20.538;2024-01-06T14:11:05;307.50;2304.00
55151;DHT22;41041;43.162;20.538;2024-01-06T14:13:31;307.80;2304.00
55151;DHT22;41041;43.162;20.538;2024-01-06T14:15:57;308.10;2304.00
55151;DHT22;41041;43.162;20.538;2024-01-06T14:18:59;333.00;2329.60
55151;DHT22;41041;43.162;20.538;2024-01-06T14:21:25;308.10;2304.00
55151;DHT22;41041;43.162;20.538;2024-01-06T14:23:51;308.00;2304.00
55151;DHT22;41041;43.162;20.538;2024-01-06T14:33:01;308.10;2304.00
55151;DHT22;41041;43.162;20.538;2024-01-06T14:35:26;308.10;2304.00
55151;DHT22;41041;43.162;20.538;2024-01-06T14:51:31;307.80;2304.00
55151;DHT22;41041;43.162;20.538;2024-01-06T14:53:57;307.90;2304.00
55151;DHT22;41041;43.162;20.538;2024-01-06T14:56:25;307.50;2304.00
55151;DHT22;41041;43.162;20.538;2024-01-06T14:58:51;307.40;2304.00
55151;DHT22;41041;43.162;20.538;2024-01-06T15:01:17;307.40;2304.00
55151;DHT22;41041;43.162;20.538;2024-01-06T15:03:43;307.30;2304.00
55151;DHT22;41041;43.162;20.538;2024-01-06T15:06:09;307.40;2304.00
55151;DHT22;41041;43.162;20.538;2024-01-06T15:08:35;307.30;2304.00
55151;DHT22;41041;43.162;20.538;2024-01-06T15:11:01;282.50;2278.40
55151;DHT22;41041;43.162;20.538;2024-01-06T15:13:28;282.50;2278.40
55151;DHT22;41041;43.162;20.538;2024-01-06T15:37:52;281.80;2278.40
55151;DHT22;41041;43.162;20.538;2024-01-06T15:40:18;256.90;2252.80
55151;DHT22;41041;43.162;20.538;2024-01-06T15:42:45;256.70;2252.80
55151;DHT22;41041;43.162;20.538;2024-01-06T15:45:11;256.60;2252.80
55151;DHT22;41041;43.162;20.538;2024-01-06T15:47:37;256.40;1868.80
55151;DHT22;41041;43.162;20.538;2024-01-06T15:50:09;256.30;2252.80
55151;DHT22;41041;43.162;20.538;2024-01-06T15:55:46;256.20;2252.80
55151;DHT22;41041;43.162;20.538;2024-01-06T16:05:12;256.20;2252.80
55151;DHT22;41041;43.162;20.538;2024-01-06T16:08:00;256.20;2252.80
55151;DHT22;41041;43.162;20.538;2024-01-06T16:10:28;256.20;2252.80
55151;DHT22;41041;43.162;20.538;2024-01-06T16:12:54;256.20;2252.80
55151;DHT22;41041;43.162;20.538;2024-01-06T16:19:23;256.30;2252.80
55151;DHT22;41041;43.162;20.538;2024-01-06T16:31:43;256.90;2252.80
55151;DHT22;41041;43.162;20.538;2024-01-06T16:34:09;256.90;2252.80
55151;DHT22;41041;43.162;20.538;2024-01-06T16:36:35;281.70;2278.40
55151;DHT22;41041;43.162;20.538;2024-01-06T16:41:27;282.20;2278.40
55151;DHT22;41041;43.162;20.538;2024-01-06T16:43:55;282.20;2278.40
55151;DHT22;41041;43.162;20.538;2024-01-06T17:29:51;256.50;2252.80
55151;DHT22;41041;43.162;20.538;2024-01-06T17:32:18;256.40;2252.80
55151;DHT22;41041;43.162;20.538;2024-01-06T17:34:44;256.40;2252.80
55151;DHT22;41041;43.162;20.538;2024-01-06T17:37:09;256.40;2252.80
55151;DHT22;41041;43.162;20.538;2024-01-06T17:39:36;256.60;2252.80
55151;DHT22;41041;43.162;20.538;2024-01-06T17:45:26;256.20;2252.80
55151;DHT22;41041;43.162;20.538;2024-01-06T17:51:42;256.40;2252.80
55151;DHT22;41041;43.162;20.538;2024-01-06T17:57:42;256.20;2252.80
55151;DHT22;41041;43.162;20.538;2024-01-06T18:10:33;256.20;2252.80
55151;DHT22;41041;43.162;20.538;2024-01-06T18:16:23;256.00;2252.80
55151;DHT22;41041;43.162;20.538;2024-01-06T18:22:12;231.30;2252.80
55151;DHT22;41041;43.162;20.538;2024-01-06T18:41:30;230.90;2252.80
55151;DHT22;41041;43.162;20.538;2024-01-06T19:19:23;230.80;2252.80
55151;DHT22;41041;43.162;20.538;2024-01-06T19:21:49;230.80;2252.80
55151;DHT22;41041;43.162;20.538;2024-01-06T19:24:15;230.80;2252.80
55151;DHT22;41041;43.162;20.538;2024-01-06T21:15:13;230.40;2252.80
55151;DHT22;41041;43.162;20.538;2024-01-06T21:17:40;205.60;2252.80
55151;DHT22;41041;43.162;20.538;2024-01-06T21:20:06;205.60;2252.80
55151;DHT22;41041;43.162;20.538;2024-01-06T21:22:33;205.60;2252.80
55151;DHT22;41041;43.162;20.538;2024-01-06T22:07:53;205.20;2252.80
55151;DHT22;41041;43.162;20.538;2024-01-06T22:10:19;205.10;2252.80
55151;DHT22;41041;43.162;20.538;2024-01-06T22:12:45;205.20;2252.80
55151;DHT22;41041;43.162;20.538;2024-01-06T22:15:13;205.10;2252.80
55151;DHT22;41041;43.162;20.538;2024-01-06T22:17:39;205.10;2252.80
55151;DHT22;41041;43.162;20.538;2024-01-06T22:20:06;205.10;2252.80
55151;DHT22;41041;43.162;20.538;2024-01-06T22:22:32;205.20;2252.80
55151;DHT22;41041;43.162;20.538;2024-01-06T22:24:58;205.20;2252.80
55151;DHT22;41041;43.162;20.538;2024-01-06T22:27:24;205.20;2252.80
55151;DHT22;41041;43.162;20.538;2024-01-06T22:29:50;205.20;2252.80
55151;DHT22;41041;43.162;20.538;2024-01-06T22:32:16;205.30;2252.80
55151;DHT22;41041;43.162;20.538;2024-01-06T22:38:04;205.20;2252.80
55151;DHT22;41041;43.162;20.538;2024-01-06T22:40:30;205.20;2252.80
55151;DHT22;41041;43.162;20.538;2024-01-06T22:42:56;205.20;2252.80
55151;DHT22;41041;43.162;20.538;2024-01-06T22:45:22;205.20;2252.80
55151;DHT22;41041;43.162;20.538;2024-01-06T22:47:50;205.00;2252.80
